sensor_id;sensor_type;location;lat;lon;timestamp;temperature;humidity
37528;DHT22;23372;52.050;4.810;2024-01-16T00:02:10;0.80;99.90
37528;DHT22;23372;52.050;4.810;2024-01-16T00:04:37;0.80;99.90
37528;DHT22;23372;52.050;4.810;2024-01-16T00:07:03;0.80;99.90
37528;DHT22;23372;52.050;4.810;2024-01-16T00:09:28;0.80;99.90
37528;DHT22;23372;52.050;4.810;2024-01-16T00:11:54;0.80;99.90
37528;DHT22;23372;52.050;4.810;2024-01-16T00:14:19;0.80;99.90
37528;DHT22;23372;52.050;4.810;2024-01-16T00:16:46;0.80;99.90
37528;DHT22;23372;52.050;4.810;2024-01-16T00:19:12;0.70;99.90
37528;DHT22;23372;52.050;4.810;2024-01-16T00:21:41;0.70;99.90
37528;DHT22;23372;52.050;4.810;2024-01-16T00:24:07;0.60;99.90
37528;DHT22;23372;52.050;4.810;2024-01-16T00:26:33;0.70;99.90
37528;DHT22;23372;52.050;4.810;2024-01-16T00:28:59;0.70;99.90
37528;DHT22;23372;52.050;4.810;2024-01-16T00:31:24;0.70;99.90
37528;DHT22;23372;52.050;4.810;2024-01-16T00:33:50;0.80;99.90
37528;DHT22;23372;52.050;4.810;2024-01-16T00:36:15;0.80;99.90
37528;DHT22;23372;52.050;4.810;2024-01-16T00:38:41;0.90;99.90
37528;DHT22;23372;52.050;4.810;2024-01-16T00:41:06;0.90;99.90
37528;DHT22;23372;52.050;4.810;2024-01-16T00:43:32;1.00;99.90
37528;DHT22;23372;52.050;4.810;2024-01-16T00:45:58;1.00;99.90
37528;DHT22;23372;52.050;4.810;2024-01-16T00:48:24;0.90;99.90
37528;DHT22;23372;52.050;4.810;2024-01-16T00:50:49;0.90;99.90
37528;DHT22;23372;52.050;4.810;2024-01-16T00:53:18;0.90;99.90
37528;DHT22;23372;52.050;4.810;2024-01-16T00:55:43;0.90;99.90
37528;DHT22;23372;52.050;4.810;2024-01-16T00:58:09;1.00;99.90
37528;DHT22;23372;52.050;4.810;2024-01-16T01:00:34;1.10;99.90
37528;DHT22;23372;52.050;4.810;2024-01-16T01:03:03;1.20;99.90
37528;DHT22;23372;52.050;4.810;2024-01-16T01:05:29;1.30;99.90
37528;DHT22;23372;52.050;4.810;2024-01-16T01:07:55;1.40;99.90
37528;DHT22;23372;52.050;4.810;2024-01-16T01:10:21;1.40;99.90
37528;DHT22;23372;52.050;4.810;2024-01-16T01:12:46;1.40;99.90
37528;DHT22;23372;52.050;4.810;2024-01-16T01:15:12;1.40;99.90
37528;DHT22;23372;52.050;4.810;2024-01-16T01:17:39;1.50;99.90
37528;DHT22;23372;52.050;4.810;2024-01-16T01:20:06;1.50;99.90
37528;DHT22;23372;52.050;4.810;2024-01-16T01:22:31;1.40;99.90
37528;DHT22;23372;52.050;4.810;2024-01-16T01:24:57;1.30;99.90
37528;DHT22;23372;52.050;4.810;2024-01-16T01:27:22;1.20;99.90
37528;DHT22;23372;52.050;4.810;2024-01-16T01:29:48;1.20;99.90
37528;DHT22;23372;52.050;4.810;2024-01-16T01:32:14;1.10;99.90
37528;DHT22;23372;52.050;4.810;2024-01-16T01:34:41;1.10;99.90
37528;DHT22;23372;52.050;4.810;2024-01-16T01:37:07;1.10;99.90
37528;DHT22;23372;52.050;4.810;2024-01-16T01:39:32;1.10;99.90
37528;DHT22;23372;52.050;4.810;2024-01-16T01:41:58;1.20;99.90
37528;DHT22;23372;52.050;4.810;2024-01-16T01:44:24;1.20;99.90
37528;DHT22;23372;52.050;4.810;2024-01-16T01:46:51;1.30;99.90
37528;DHT22;23372;52.050;4.810;2024-01-16T01:49:17;1.30;99.90
37528;DHT22;23372;52.050;4.810;2024-01-16T01:51:43;1.30;99.90
37528;DHT22;23372;52.050;4.810;2024-01-16T01:54:10;1.20;99.90
37528;DHT22;23372;52.050;4.810;2024-01-16T01:56:36;1.10;99.90
37528;DHT22;23372;52.050;4.810;2024-01-16T01:59:02;1.10;99.90
37528;DHT22;23372;52.050;4.810;2024-01-16T02:01:29;1.10;99.90
37528;DHT22;23372;52.050;4.810;2024-01-16T02:03:57;1.10;99.90
37528;DHT22;23372;52.050;4.810;2024-01-16T02:06:24;1.10;99.90
37528;DHT22;23372;52.050;4.810;2024-01-16T02:08:51;1.00;99.90
37528;DHT22;23372;52.050;4.810;2024-01-16T02:11:16;1.00;99.90
37528;DHT22;23372;52.050;4.810;2024-01-16T02:13:42;0.90;99.90
37528;DHT22;23372;52.050;4.810;2024-01-16T02:16:38;0.80;99.90
37528;DHT22;23372;52.050;4.810;2024-01-16T02:19:04;0.60;99.90
37528;DHT22;23372;52.050;4.810;2024-01-16T02:21:39;0.60;99.90
37528;DHT22;23372;52.050;4.810;2024-01-16T02:24:06;0.60;99.90
37528;DHT22;23372;52.050;4.810;2024-01-16T02:26:33;0.60;99.90
37528;DHT22;23372;52.050;4.810;2024-01-16T02:29:01;0.70;99.90
37528;DHT22;23372;52.050;4.810;2024-01-16T02:31:28;0.70;99.90
37528;DHT22;23372;52.050;4.810;2024-01-16T02:33:53;0.70;99.90
37528;DHT22;23372;52.050;4.810;2024-01-16T02:36:19;0.70;99.90
37528;DHT22;23372;52.050;4.810;2024-01-16T02:38:44;0.70;99.90
37528;DHT22;23372;52.050;4.810;2024-01-16T02:41:13;0.80;99.90
37528;DHT22;23372;52.050;4.810;2024-01-16T02:43:39;0.80;99.90
37528;DHT22;23372;52.050;4.810;2024-01-16T02:46:04;0.80;99.90
37528;DHT22;23372;52.050;4.810;2024-01-16T02:48:30;0.80;99.90
37528;DHT22;23372;52.050;4.810;2024-01-16T02:50:55;0.80;99.90
37528;DHT22;23372;52.050;4.810;2024-01-16T02:53:21;0.80;99.90
37528;DHT22;23372;52.050;4.810;2024-01-16T02:55:46;0.80;99.90
37528;DHT22;23372;52.050;4.810;2024-01-16T02:58:12;0.80;99.90
37528;DHT22;23372;52.050;4.810;2024-01-16T03:00:38;0.90;99.90
37528;DHT22;23372;52.050;4.810;2024-01-16T03:03:03;0.90;99.90
37528;DHT22;23372;52.050;4.810;2024-01-16T03:05:29;0.90;99.90
37528;DHT22;23372;52.050;4.810;2024-01-16T03:07:55;0.90;99.90
37528;DHT22;23372;52.050;4.810;2024-01-16T03:10:20;1.00;99.90
37528;DHT22;23372;52.050;4.810;2024-01-16T03:12:46;0.90;99.90
37528;DHT22;23372;52.050;4.810;2024-01-16T03:15:12;0.90;99.90
37528;DHT22;23372;52.050;4.810;2024-01-16T03:17:38;0.90;99.90
37528;DHT22;23372;52.050;4.810;2024-01-16T03:20:03;0.90;99.90
37528;DHT22;23372;52.050;4.810;2024-01-16T03:22:29;0.90;99.90
37528;DHT22;23372;52.050;4.810;2024-01-16T03:24:54;0.90;99.90
37528;DHT22;23372;52.050;4.810;2024-01-16T03:27:20;0.90;99.90
37528;DHT22;23372;52.050;4.810;2024-01-16T03:29:45;0.90;99.90
37528;DHT22;23372;52.050;4.810;2024-01-16T03:32:11;0.90;99.90
37528;DHT22;23372;52.050;4.810;2024-01-16T03:34:36;0.90;99.90
37528;DHT22;23372;52.050;4.810;2024-01-16T03:37:02;0.90;99.90
37528;DHT22;23372;52.050;4.810;2024-01-16T03:39:28;0.90;99.90
37528;DHT22;23372;52.050;4.810;2024-01-16T03:41:53;0.90;99.90
37528;DHT22;23372;52.050;4.810;2024-01-16T03:44:19;0.90;99.90
37528;DHT22;23372;52.050;4.810;2024-01-16T03:46:44;0.90;99.90
37528;DHT22;23372;52.050;4.810;2024-01-16T03:49:10;1.00;99.90
37528;DHT22;23372;52.050;4.810;2024-01-16T03:51:35;1.00;99.90
37528;DHT22;23372;52.050;4.810;2024-01-16T03:54:01;0.90;99.90
37528;DHT22;23372;52.050;4.810;2024-01-16T03:56:26;1.00;99.90
37528;DHT22;23372;52.050;4.810;2024-01-16T03:58:52;1.00;99.90
37528;DHT22;23372;52.050;4.810;2024-01-16T04:01:17;1.00;99.90
37528;DHT22;23372;52.050;4.810;2024-01-16T04:03:43;1.00;99.90
37528;DHT22;23372;52.050;4.810;2024-01-16T04:06:18;1.00;99.90
37528;DHT22;23372;52.050;4.810;2024-01-16T04:08:44;1.10;99.90
37528;DHT22;23372;52.050;4.810;2024-01-16T04:11:13;1.10;99.90
37528;DHT22;23372;52.050;4.810;2024-01-16T04:13:40;1.20;99.90
37528;DHT22;23372;52.050;4.810;2024-01-16T04:16:06;1.20;99.90
37528;DHT22;23372;52.050;4.810;2024-01-16T04:18:39;1.10;99.90
37528;DHT22;23372;52.050;4.810;2024-01-16T04:21:08;1.10;99.90
37528;DHT22;23372;52.050;4.810;2024-01-16T04:23:33;1.10;99.90
37528;DHT22;23372;52.050;4.810;2024-01-16T04:25:59;1.10;99.90
37528;DHT22;23372;52.050;4.810;2024-01-16T04:28:25;1.10;99.90
37528;DHT22;23372;52.050;4.810;2024-01-16T04:30:51;1.10;99.90
37528;DHT22;23372;52.050;4.810;2024-01-16T04:33:16;1.10;99.90
37528;DHT22;23372;52.050;4.810;2024-01-16T04:35:42;1.10;99.90
37528;DHT22;23372;52.050;4.810;2024-01-16T04:38:07;1.10;99.90
37528;DHT22;23372;52.050;4.810;2024-01-16T04:40:33;1.10;99.90
37528;DHT22;23372;52.050;4.810;2024-01-16T04:42:59;1.20;99.90
37528;DHT22;23372;52.050;4.810;2024-01-16T04:45:25;1.10;99.90
37528;DHT22;23372;52.050;4.810;2024-01-16T04:47:50;1.10;99.90
37528;DHT22;23372;52.050;4.810;2024-01-16T04:50:16;1.10;99.90
37528;DHT22;23372;52.050;4.810;2024-01-16T04:52:41;1.20;99.90
37528;DHT22;23372;52.050;4.810;2024-01-16T04:55:07;1.10;99.90
37528;DHT22;23372;52.050;4.810;2024-01-16T04:57:33;1.10;99.90
37528;DHT22;23372;52.050;4.810;2024-01-16T04:59:58;1.10;99.90
37528;DHT22;23372;52.050;4.810;2024-01-16T05:02:24;1.20;99.90
37528;DHT22;23372;52.050;4.810;2024-01-16T05:04:50;1.20;99.90
37528;DHT22;23372;52.050;4.810;2024-01-16T05:07:18;1.20;99.90
37528;DHT22;23372;52.050;4.810;2024-01-16T05:09:45;1.20;99.90
37528;DHT22;23372;52.050;4.810;2024-01-16T05:12:10;1.20;99.90
37528;DHT22;23372;52.050;4.810;2024-01-16T05:14:36;1.20;99.90
37528;DHT22;23372;52.050;4.810;2024-01-16T05:17:01;1.10;99.90
37528;DHT22;23372;52.050;4.810;2024-01-16T05:19:27;1.10;99.90
37528;DHT22;23372;52.050;4.810;2024-01-16T05:21:53;1.10;99.90
37528;DHT22;23372;52.050;4.810;2024-01-16T05:24:18;1.10;99.90
37528;DHT22;23372;52.050;4.810;2024-01-16T05:26:44;1.10;99.90
37528;DHT22;23372;52.050;4.810;2024-01-16T05:29:10;1.10;99.90
37528;DHT22;23372;52.050;4.810;2024-01-16T05:31:41;1.00;99.90
37528;DHT22;23372;52.050;4.810;2024-01-16T05:34:08;1.00;99.90
37528;DHT22;23372;52.050;4.810;2024-01-16T05:36:34;1.00;99.90
37528;DHT22;23372;52.050;4.810;2024-01-16T05:38:59;1.00;99.90
37528;DHT22;23372;52.050;4.810;2024-01-16T05:41:26;0.90;99.90
37528;DHT22;23372;52.050;4.810;2024-01-16T05:43:52;0.90;99.90
37528;DHT22;23372;52.050;4.810;2024-01-16T05:46:18;0.80;99.90
37528;DHT22;23372;52.050;4.810;2024-01-16T05:48:43;0.80;99.90
37528;DHT22;23372;52.050;4.810;2024-01-16T05:51:09;0.90;99.90
37528;DHT22;23372;52.050;4.810;2024-01-16T05:53:34;0.80;99.90
37528;DHT22;23372;52.050;4.810;2024-01-16T05:56:00;0.80;99.90
37528;DHT22;23372;52.050;4.810;2024-01-16T05:58:25;0.80;99.90
37528;DHT22;23372;52.050;4.810;2024-01-16T06:00:51;0.80;99.90
37528;DHT22;23372;52.050;4.810;2024-01-16T06:03:16;0.70;99.90
37528;DHT22;23372;52.050;4.810;2024-01-16T06:05:42;0.70;99.90
37528;DHT22;23372;52.050;4.810;2024-01-16T06:08:07;0.70;99.90
37528;DHT22;23372;52.050;4.810;2024-01-16T06:10:33;0.70;99.90
37528;DHT22;23372;52.050;4.810;2024-01-16T06:12:59;0.70;99.90
37528;DHT22;23372;52.050;4.810;2024-01-16T06:15:24;0.70;99.90
37528;DHT22;23372;52.050;4.810;2024-01-16T06:17:50;0.60;99.90
37528;DHT22;23372;52.050;4.810;2024-01-16T06:20:15;0.60;99.90
37528;DHT22;23372;52.050;4.810;2024-01-16T06:22:41;0.60;99.90
37528;DHT22;23372;52.050;4.810;2024-01-16T06:25:06;0.60;99.90
37528;DHT22;23372;52.050;4.810;2024-01-16T06:27:32;0.60;99.90
37528;DHT22;23372;52.050;4.810;2024-01-16T06:29:58;0.70;99.90
37528;DHT22;23372;52.050;4.810;2024-01-16T06:32:24;0.60;99.90
37528;DHT22;23372;52.050;4.810;2024-01-16T06:34:49;0.70;99.90
37528;DHT22;23372;52.050;4.810;2024-01-16T06:37:15;0.70;99.90
37528;DHT22;23372;52.050;4.810;2024-01-16T06:39:41;0.70;99.90
37528;DHT22;23372;52.050;4.810;2024-01-16T06:42:06;0.70;99.90
37528;DHT22;23372;52.050;4.810;2024-01-16T06:44:32;0.60;99.90
37528;DHT22;23372;52.050;4.810;2024-01-16T06:46:57;0.60;99.90
37528;DHT22;23372;52.050;4.810;2024-01-16T06:49:23;0.60;99.90
37528;DHT22;23372;52.050;4.810;2024-01-16T06:51:48;0.60;99.90
37528;DHT22;23372;52.050;4.810;2024-01-16T06:54:14;0.60;99.90
37528;DHT22;23372;52.050;4.810;2024-01-16T06:56:40;0.50;99.90
37528;DHT22;23372;52.050;4.810;2024-01-16T06:59:05;0.50;99.90
37528;DHT22;23372;52.050;4.810;2024-01-16T07:01:31;0.50;99.90
37528;DHT22;23372;52.050;4.810;2024-01-16T07:03:56;0.50;99.90
37528;DHT22;23372;52.050;4.810;2024-01-16T07:06:22;0.40;99.90
37528;DHT22;23372;52.050;4.810;2024-01-16T07:08:48;0.40;99.90
37528;DHT22;23372;52.050;4.810;2024-01-16T07:11:13;0.40;99.90
37528;DHT22;23372;52.050;4.810;2024-01-16T07:13:40;0.40;99.90
37528;DHT22;23372;52.050;4.810;2024-01-16T07:16:09;0.30;99.90
37528;DHT22;23372;52.050;4.810;2024-01-16T07:18:35;0.40;99.90
37528;DHT22;23372;52.050;4.810;2024-01-16T07:21:00;0.40;99.90
37528;DHT22;23372;52.050;4.810;2024-01-16T07:23:26;0.40;99.90
37528;DHT22;23372;52.050;4.810;2024-01-16T07:25:52;0.40;99.90
37528;DHT22;23372;52.050;4.810;2024-01-16T07:28:17;0.40;99.90
37528;DHT22;23372;52.050;4.810;2024-01-16T07:30:44;0.40;99.90
37528;DHT22;23372;52.050;4.810;2024-01-16T07:33:09;0.40;99.90
37528;DHT22;23372;52.050;4.810;2024-01-16T07:35:35;0.40;99.90
37528;DHT22;23372;52.050;4.810;2024-01-16T07:38:01;0.40;99.90
37528;DHT22;23372;52.050;4.810;2024-01-16T07:40:26;0.50;99.90
37528;DHT22;23372;52.050;4.810;2024-01-16T07:42:52;0.50;99.90
37528;DHT22;23372;52.050;4.810;2024-01-16T07:45:17;0.50;99.90
37528;DHT22;23372;52.050;4.810;2024-01-16T07:47:43;0.50;99.90
37528;DHT22;23372;52.050;4.810;2024-01-16T07:50:08;0.50;99.90
37528;DHT22;23372;52.050;4.810;2024-01-16T07:52:35;0.50;99.90
37528;DHT22;23372;52.050;4.810;2024-01-16T07:55:01;0.60;99.90
37528;DHT22;23372;52.050;4.810;2024-01-16T07:57:26;0.50;99.90
37528;DHT22;23372;52.050;4.810;2024-01-16T07:59:52;0.60;99.90
37528;DHT22;23372;52.050;4.810;2024-01-16T08:02:17;0.60;99.90
37528;DHT22;23372;52.050;4.810;2024-01-16T08:04:43;0.50;99.90
37528;DHT22;23372;52.050;4.810;2024-01-16T08:07:08;0.50;99.90
37528;DHT22;23372;52.050;4.810;2024-01-16T08:09:34;0.60;99.90
37528;DHT22;23372;52.050;4.810;2024-01-16T08:12:00;0.60;99.90
37528;DHT22;23372;52.050;4.810;2024-01-16T08:14:27;0.50;99.90
37528;DHT22;23372;52.050;4.810;2024-01-16T08:16:54;0.50;99.90
37528;DHT22;23372;52.050;4.810;2024-01-16T08:19:19;0.50;99.90
37528;DHT22;23372;52.050;4.810;2024-01-16T08:21:45;0.50;99.90
37528;DHT22;23372;52.050;4.810;2024-01-16T08:24:10;0.60;99.90
37528;DHT22;23372;52.050;4.810;2024-01-16T08:26:36;0.60;99.90
37528;DHT22;23372;52.050;4.810;2024-01-16T08:29:02;0.60;99.90
37528;DHT22;23372;52.050;4.810;2024-01-16T08:31:27;0.60;99.90
37528;DHT22;23372;52.050;4.810;2024-01-16T08:33:53;0.70;99.90
37528;DHT22;23372;52.050;4.810;2024-01-16T08:36:21;0.70;99.90
37528;DHT22;23372;52.050;4.810;2024-01-16T08:38:47;0.70;99.90
37528;DHT22;23372;52.050;4.810;2024-01-16T08:41:12;0.70;99.90
37528;DHT22;23372;52.050;4.810;2024-01-16T08:43:38;0.70;99.90
37528;DHT22;23372;52.050;4.810;2024-01-16T08:46:03;0.70;99.90
37528;DHT22;23372;52.050;4.810;2024-01-16T08:48:29;0.70;99.90
37528;DHT22;23372;52.050;4.810;2024-01-16T08:50:54;0.80;99.90
37528;DHT22;23372;52.050;4.810;2024-01-16T08:53:20;0.80;99.90
37528;DHT22;23372;52.050;4.810;2024-01-16T08:55:48;0.80;99.90
37528;DHT22;23372;52.050;4.810;2024-01-16T08:58:14;0.90;99.90
37528;DHT22;23372;52.050;4.810;2024-01-16T09:00:39;1.00;99.90
37528;DHT22;23372;52.050;4.810;2024-01-16T09:03:05;1.00;99.90
37528;DHT22;23372;52.050;4.810;2024-01-16T09:05:31;1.00;99.90
37528;DHT22;23372;52.050;4.810;2024-01-16T09:07:56;1.10;99.90
37528;DHT22;23372;52.050;4.810;2024-01-16T09:10:22;1.20;99.90
37528;DHT22;23372;52.050;4.810;2024-01-16T09:12:47;1.20;99.90
37528;DHT22;23372;52.050;4.810;2024-01-16T09:15:14;1.20;99.90
37528;DHT22;23372;52.050;4.810;2024-01-16T09:17:39;1.30;99.90
37528;DHT22;23372;52.050;4.810;2024-01-16T09:20:06;1.30;99.90
37528;DHT22;23372;52.050;4.810;2024-01-16T09:22:32;1.40;99.90
37528;DHT22;23372;52.050;4.810;2024-01-16T09:24:57;1.40;99.90
37528;DHT22;23372;52.050;4.810;2024-01-16T09:27:23;1.50;99.90
37528;DHT22;23372;52.050;4.810;2024-01-16T09:29:49;1.50;99.90
37528;DHT22;23372;52.050;4.810;2024-01-16T09:32:14;1.60;99.90
37528;DHT22;23372;52.050;4.810;2024-01-16T09:34:40;1.60;99.90
37528;DHT22;23372;52.050;4.810;2024-01-16T09:37:05;1.70;99.90
37528;DHT22;23372;52.050;4.810;2024-01-16T09:39:31;1.80;99.90
37528;DHT22;23372;52.050;4.810;2024-01-16T09:41:59;2.20;99.90
37528;DHT22;23372;52.050;4.810;2024-01-16T09:44:28;2.60;99.90
37528;DHT22;23372;52.050;4.810;2024-01-16T09:46:55;3.20;99.90
37528;DHT22;23372;52.050;4.810;2024-01-16T09:49:23;3.60;99.90
37528;DHT22;23372;52.050;4.810;2024-01-16T09:51:49;3.80;99.90
37528;DHT22;23372;52.050;4.810;2024-01-16T09:54:15;4.10;99.90
37528;DHT22;23372;52.050;4.810;2024-01-16T09:56:44;4.50;99.90
37528;DHT22;23372;52.050;4.810;2024-01-16T09:59:16;4.80;99.90
37528;DHT22;23372;52.050;4.810;2024-01-16T10:01:42;5.80;99.90
37528;DHT22;23372;52.050;4.810;2024-01-16T10:04:09;6.80;99.90
37528;DHT22;23372;52.050;4.810;2024-01-16T10:06:34;7.60;99.90
37528;DHT22;23372;52.050;4.810;2024-01-16T10:09:03;6.90;99.90
37528;DHT22;23372;52.050;4.810;2024-01-16T10:11:29;7.00;99.90
37528;DHT22;23372;52.050;4.810;2024-01-16T10:13:56;5.70;99.90
37528;DHT22;23372;52.050;4.810;2024-01-16T10:16:22;4.80;99.90
37528;DHT22;23372;52.050;4.810;2024-01-16T10:18:47;4.10;99.90
37528;DHT22;23372;52.050;4.810;2024-01-16T10:21:22;3.70;99.90
37528;DHT22;23372;52.050;4.810;2024-01-16T10:23:48;4.10;99.90
37528;DHT22;23372;52.050;4.810;2024-01-16T10:26:14;4.20;99.90
37528;DHT22;23372;52.050;4.810;2024-01-16T10:28:41;4.60;99.90
37528;DHT22;23372;52.050;4.810;2024-01-16T10:31:08;4.60;99.90
37528;DHT22;23372;52.050;4.810;2024-01-16T10:33:34;4.60;99.90
37528;DHT22;23372;52.050;4.810;2024-01-16T10:36:11;4.60;99.90
37528;DHT22;23372;52.050;4.810;2024-01-16T10:38:38;5.10;99.90
37528;DHT22;23372;52.050;4.810;2024-01-16T10:41:08;4.60;99.90
37528;DHT22;23372;52.050;4.810;2024-01-16T10:43:34;3.90;99.90
37528;DHT22;23372;52.050;4.810;2024-01-16T10:46:17;3.90;99.90
37528;DHT22;23372;52.050;4.810;2024-01-16T10:48:45;3.40;99.90
37528;DHT22;23372;52.050;4.810;2024-01-16T10:51:14;3.60;99.90
37528;DHT22;23372;52.050;4.810;2024-01-16T10:53:42;3.70;99.90
37528;DHT22;23372;52.050;4.810;2024-01-16T10:56:10;3.60;99.90
37528;DHT22;23372;52.050;4.810;2024-01-16T10:58:40;3.90;99.90
37528;DHT22;23372;52.050;4.810;2024-01-16T11:01:10;4.00;99.90
37528;DHT22;23372;52.050;4.810;2024-01-16T11:03:46;4.20;99.90
37528;DHT22;23372;52.050;4.810;2024-01-16T11:06:15;4.10;99.90
37528;DHT22;23372;52.050;4.810;2024-01-16T11:08:41;4.10;99.90
37528;DHT22;23372;52.050;4.810;2024-01-16T11:11:08;3.60;99.90
37528;DHT22;23372;52.050;4.810;2024-01-16T11:13:35;3.30;99.90
37528;DHT22;23372;52.050;4.810;2024-01-16T11:16:02;3.10;99.90
37528;DHT22;23372;52.050;4.810;2024-01-16T11:18:30;2.90;99.90
37528;DHT22;23372;52.050;4.810;2024-01-16T11:20:57;2.70;99.90
37528;DHT22;23372;52.050;4.810;2024-01-16T11:23:24;2.50;99.90
37528;DHT22;23372;52.050;4.810;2024-01-16T11:25:49;2.50;99.90
37528;DHT22;23372;52.050;4.810;2024-01-16T11:28:15;2.50;99.90
37528;DHT22;23372;52.050;4.810;2024-01-16T11:30:42;2.60;99.90
37528;DHT22;23372;52.050;4.810;2024-01-16T11:35:58;2.80;99.90
37528;DHT22;23372;52.050;4.810;2024-01-16T11:38:25;2.90;99.90
37528;DHT22;23372;52.050;4.810;2024-01-16T11:40:55;3.00;99.90
37528;DHT22;23372;52.050;4.810;2024-01-16T11:45:59;3.10;99.90
37528;DHT22;23372;52.050;4.810;2024-01-16T11:48:25;3.20;99.90
37528;DHT22;23372;52.050;4.810;2024-01-16T11:50:52;3.30;99.90
37528;DHT22;23372;52.050;4.810;2024-01-16T11:59:29;3.60;99.90
37528;DHT22;23372;52.050;4.810;2024-01-16T12:02:02;3.90;99.90
37528;DHT22;23372;52.050;4.810;2024-01-16T12:04:31;4.20;99.90
37528;DHT22;23372;52.050;4.810;2024-01-16T12:06:59;4.20;99.90
37528;DHT22;23372;52.050;4.810;2024-01-16T12:09:27;4.10;99.90
37528;DHT22;23372;52.050;4.810;2024-01-16T12:12:02;4.00;99.90
37528;DHT22;23372;52.050;4.810;2024-01-16T12:14:29;4.00;99.90
37528;DHT22;23372;52.050;4.810;2024-01-16T12:17:11;3.80;99.90
37528;DHT22;23372;52.050;4.810;2024-01-16T12:19:37;3.70;99.90
37528;DHT22;23372;52.050;4.810;2024-01-16T12:22:07;3.60;99.90
37528;DHT22;23372;52.050;4.810;2024-01-16T12:24:33;3.70;99.90
37528;DHT22;23372;52.050;4.810;2024-01-16T12:26:59;3.80;99.90
37528;DHT22;23372;52.050;4.810;2024-01-16T12:29:24;3.90;99.90
37528;DHT22;23372;52.050;4.810;2024-01-16T12:31:50;4.00;99.90
37528;DHT22;23372;52.050;4.810;2024-01-16T12:34:15;3.90;99.90
37528;DHT22;23372;52.050;4.810;2024-01-16T12:36:41;3.80;99.90
37528;DHT22;23372;52.050;4.810;2024-01-16T12:39:06;3.90;99.90
37528;DHT22;23372;52.050;4.810;2024-01-16T12:41:41;3.80;99.90
37528;DHT22;23372;52.050;4.810;2024-01-16T12:44:07;3.50;99.90
37528;DHT22;23372;52.050;4.810;2024-01-16T12:46:32;3.20;99.90
37528;DHT22;23372;52.050;4.810;2024-01-16T12:49:05;3.20;99.90
37528;DHT22;23372;52.050;4.810;2024-01-16T12:51:32;3.10;99.90
37528;DHT22;23372;52.050;4.810;2024-01-16T12:54:14;3.20;99.90
37528;DHT22;23372;52.050;4.810;2024-01-16T12:56:41;3.20;99.90
37528;DHT22;23372;52.050;4.810;2024-01-16T12:59:13;3.20;99.90
37528;DHT22;23372;52.050;4.810;2024-01-16T13:01:43;3.20;99.90
37528;DHT22;23372;52.050;4.810;2024-01-16T13:04:10;3.20;99.90
37528;DHT22;23372;52.050;4.810;2024-01-16T13:06:36;3.30;99.90
37528;DHT22;23372;52.050;4.810;2024-01-16T13:09:07;3.40;99.90
37528;DHT22;23372;52.050;4.810;2024-01-16T13:11:55;3.50;99.90
37528;DHT22;23372;52.050;4.810;2024-01-16T13:14:21;3.60;99.90
37528;DHT22;23372;52.050;4.810;2024-01-16T13:16:48;3.50;99.90
37528;DHT22;23372;52.050;4.810;2024-01-16T13:19:19;3.40;99.90
37528;DHT22;23372;52.050;4.810;2024-01-16T13:21:45;3.40;99.90
37528;DHT22;23372;52.050;4.810;2024-01-16T13:24:10;3.60;99.90
37528;DHT22;23372;52.050;4.810;2024-01-16T13:26:36;3.60;99.90
37528;DHT22;23372;52.050;4.810;2024-01-16T13:29:02;3.70;99.90
37528;DHT22;23372;52.050;4.810;2024-01-16T13:31:29;3.80;99.90
37528;DHT22;23372;52.050;4.810;2024-01-16T13:33:54;3.60;99.90
37528;DHT22;23372;52.050;4.810;2024-01-16T13:36:22;3.50;99.90
37528;DHT22;23372;52.050;4.810;2024-01-16T13:38:48;3.50;99.90
37528;DHT22;23372;52.050;4.810;2024-01-16T13:41:14;3.50;99.90
37528;DHT22;23372;52.050;4.810;2024-01-16T13:43:40;3.30;99.90
37528;DHT22;23372;52.050;4.810;2024-01-16T13:46:06;3.30;99.90
37528;DHT22;23372;52.050;4.810;2024-01-16T13:48:34;3.20;99.90
37528;DHT22;23372;52.050;4.810;2024-01-16T13:50:59;3.30;99.90
37528;DHT22;23372;52.050;4.810;2024-01-16T13:53:25;3.20;99.90
37528;DHT22;23372;52.050;4.810;2024-01-16T13:55:51;3.30;99.90
37528;DHT22;23372;52.050;4.810;2024-01-16T13:58:16;3.20;99.90
37528;DHT22;23372;52.050;4.810;2024-01-16T14:00:42;3.20;99.90
37528;DHT22;23372;52.050;4.810;2024-01-16T14:03:07;3.20;99.90
37528;DHT22;23372;52.050;4.810;2024-01-16T14:05:33;3.20;99.90
37528;DHT22;23372;52.050;4.810;2024-01-16T14:07:58;3.10;99.90
37528;DHT22;23372;52.050;4.810;2024-01-16T14:10:24;3.00;99.90
37528;DHT22;23372;52.050;4.810;2024-01-16T14:12:51;3.00;99.90
37528;DHT22;23372;52.050;4.810;2024-01-16T14:15:19;3.00;99.90
37528;DHT22;23372;52.050;4.810;2024-01-16T14:17:50;3.00;99.90
37528;DHT22;23372;52.050;4.810;2024-01-16T14:20:18;3.10;99.90
37528;DHT22;23372;52.050;4.810;2024-01-16T14:22:43;3.10;99.90
37528;DHT22;23372;52.050;4.810;2024-01-16T14:25:13;3.10;99.90
37528;DHT22;23372;52.050;4.810;2024-01-16T14:27:41;3.10;99.90
37528;DHT22;23372;52.050;4.810;2024-01-16T14:30:09;3.00;99.90
37528;DHT22;23372;52.050;4.810;2024-01-16T14:32:39;3.00;99.90
37528;DHT22;23372;52.050;4.810;2024-01-16T14:35:06;2.90;99.90
37528;DHT22;23372;52.050;4.810;2024-01-16T14:37:33;2.90;99.90
37528;DHT22;23372;52.050;4.810;2024-01-16T14:39:59;2.90;99.90
37528;DHT22;23372;52.050;4.810;2024-01-16T14:42:28;3.00;99.90
37528;DHT22;23372;52.050;4.810;2024-01-16T14:44:54;3.00;99.90
37528;DHT22;23372;52.050;4.810;2024-01-16T14:47:20;3.10;99.90
37528;DHT22;23372;52.050;4.810;2024-01-16T14:49:46;3.30;99.90
37528;DHT22;23372;52.050;4.810;2024-01-16T14:52:11;3.30;99.90
37528;DHT22;23372;52.050;4.810;2024-01-16T14:54:37;3.30;99.90
37528;DHT22;23372;52.050;4.810;2024-01-16T14:57:03;3.20;99.90
37528;DHT22;23372;52.050;4.810;2024-01-16T14:59:30;3.20;99.90
37528;DHT22;23372;52.050;4.810;2024-01-16T15:01:55;3.10;99.90
37528;DHT22;23372;52.050;4.810;2024-01-16T15:04:21;3.00;99.90
37528;DHT22;23372;52.050;4.810;2024-01-16T15:06:46;3.00;99.90
37528;DHT22;23372;52.050;4.810;2024-01-16T15:09:12;2.90;99.90
37528;DHT22;23372;52.050;4.810;2024-01-16T15:11:38;2.80;99.90
37528;DHT22;23372;52.050;4.810;2024-01-16T15:14:04;2.70;99.90
37528;DHT22;23372;52.050;4.810;2024-01-16T15:16:30;2.60;99.90
37528;DHT22;23372;52.050;4.810;2024-01-16T15:18:56;2.60;99.90
37528;DHT22;23372;52.050;4.810;2024-01-16T15:21:22;2.50;99.90
37528;DHT22;23372;52.050;4.810;2024-01-16T15:23:48;2.50;99.90
37528;DHT22;23372;52.050;4.810;2024-01-16T15:26:13;2.40;99.90
37528;DHT22;23372;52.050;4.810;2024-01-16T15:28:44;2.40;99.90
37528;DHT22;23372;52.050;4.810;2024-01-16T15:31:10;2.30;99.90
37528;DHT22;23372;52.050;4.810;2024-01-16T15:33:35;2.30;99.90
37528;DHT22;23372;52.050;4.810;2024-01-16T15:36:02;2.10;99.90
37528;DHT22;23372;52.050;4.810;2024-01-16T15:38:27;2.10;99.90
37528;DHT22;23372;52.050;4.810;2024-01-16T15:40:53;2.00;99.90
37528;DHT22;23372;52.050;4.810;2024-01-16T15:43:19;2.00;99.90
37528;DHT22;23372;52.050;4.810;2024-01-16T15:45:44;2.10;99.90
37528;DHT22;23372;52.050;4.810;2024-01-16T15:48:10;2.00;99.90
37528;DHT22;23372;52.050;4.810;2024-01-16T15:50:35;1.90;99.90
37528;DHT22;23372;52.050;4.810;2024-01-16T15:53:01;1.90;99.90